createdAt,value
2019-03-28T00:00:59.906Z,-2.93
2019-03-28T00:01:59.842Z,-2.85
2019-03-28T00:02:59.881Z,-2.90
2019-03-28T00:03:59.860Z,-2.95
2019-03-28T00:04:59.847Z,-2.99
2019-03-28T00:05:59.914Z,-3.00
2019-03-28T00:06:59.891Z,-2.99
2019-03-28T00:07:59.842Z,-2.94
2019-03-28T00:08:59.887Z,-2.91
2019-03-28T00:09:59.904Z,-2.92
2019-03-28T00:11:00.220Z,-2.92
2019-03-28T00:11:59.924Z,-2.90
2019-03-28T00:12:59.901Z,-2.93
2019-03-28T00:13:59.840Z,-2.94
2019-03-28T00:14:59.903Z,-2.94
2019-03-28T00:15:59.933Z,-2.93
2019-03-28T00:16:59.930Z,-2.95
2019-03-28T00:17:59.918Z,-2.94
2019-03-28T00:18:59.933Z,-2.81
2019-03-28T00:19:59.898Z,-2.81
2019-03-28T00:20:59.891Z,-2.87
2019-03-28T00:21:59.903Z,-2.91
2019-03-28T00:22:59.892Z,-2.95
2019-03-28T00:23:59.877Z,-2.97
2019-03-28T00:24:59.926Z,-3.04
2019-03-28T00:25:59.906Z,-3.06
2019-03-28T00:26:59.888Z,-3.07
2019-03-28T00:27:59.933Z,-3.05
2019-03-28T00:28:59.866Z,-3.01
2019-03-28T00:29:59.905Z,-2.98
2019-03-28T00:30:59.910Z,-2.92
2019-03-28T00:32:00.391Z,-2.89
2019-03-28T00:32:59.866Z,-2.92
2019-03-28T00:33:59.932Z,-2.94
2019-03-28T00:35:00.216Z,-2.91
2019-03-28T00:35:59.938Z,-2.90
2019-03-28T00:36:59.909Z,-2.90
2019-03-28T00:38:00.153Z,-2.88
2019-03-28T00:38:59.895Z,-2.89
2019-03-28T00:39:59.918Z,-2.91
2019-03-28T00:40:59.881Z,-2.97
2019-03-28T00:41:59.924Z,-2.92
2019-03-28T00:43:00.290Z,-2.94
2019-03-28T00:43:59.902Z,-2.94
2019-03-28T00:44:59.896Z,-2.99
2019-03-28T00:45:59.946Z,-3.01
2019-03-28T00:46:59.881Z,-2.96
2019-03-28T00:47:59.910Z,-3.03
2019-03-28T00:48:59.925Z,-3.00
2019-03-28T00:49:59.879Z,-3.04
2019-03-28T00:51:00.230Z,-3.00
2019-03-28T00:51:59.958Z,-3.02
2019-03-28T00:52:59.886Z,-3.02
2019-03-28T00:53:59.919Z,-3.00
2019-03-28T00:54:59.921Z,-2.88
2019-03-28T00:55:59.882Z,-2.89
2019-03-28T00:56:59.959Z,-2.96
2019-03-28T00:57:59.949Z,-3.00
2019-03-28T00:58:59.895Z,-3.05
2019-03-28T00:59:59.894Z,-3.10
2019-03-28T01:00:59.912Z,-3.15
2019-03-28T01:01:59.869Z,-3.19
2019-03-28T01:02:59.955Z,-3.14
2019-03-28T01:03:59.931Z,-3.20
2019-03-28T01:04:59.898Z,-3.20
2019-03-28T01:05:59.923Z,-3.25
2019-03-28T01:06:59.929Z,-3.22
2019-03-28T01:07:59.883Z,-3.22
2019-03-28T01:08:59.917Z,-3.20
2019-03-28T01:09:59.948Z,-3.25
2019-03-28T01:10:59.893Z,-3.33
2019-03-28T01:11:59.954Z,-3.34
2019-03-28T01:12:59.935Z,-3.30
2019-03-28T01:13:59.880Z,-3.26
2019-03-28T01:14:59.928Z,-3.27
2019-03-28T01:15:59.947Z,-3.29
2019-03-28T01:16:59.898Z,-3.33
2019-03-28T01:17:59.944Z,-3.30
2019-03-28T01:18:59.941Z,-3.29
2019-03-28T01:20:00.183Z,-3.22
2019-03-28T01:20:59.927Z,-3.15
2019-03-28T01:21:59.918Z,-3.14
2019-03-28T01:22:59.908Z,-3.18
2019-03-28T01:23:59.955Z,-3.20
2019-03-28T01:24:59.978Z,-3.10
2019-03-28T01:25:59.883Z,-3.15
2019-03-28T01:26:59.944Z,-3.20
2019-03-28T01:27:59.961Z,-3.21
2019-03-28T01:28:59.891Z,-3.20
2019-03-28T01:29:59.933Z,-3.25
2019-03-28T01:30:59.947Z,-3.34
2019-03-28T01:31:59.901Z,-3.39
2019-03-28T01:32:59.929Z,-3.42
2019-03-28T01:33:59.947Z,-3.44
2019-03-28T01:34:59.888Z,-3.48
2019-03-28T01:35:59.960Z,-3.44
2019-03-28T01:36:59.978Z,-3.40
2019-03-28T01:37:59.901Z,-3.41
2019-03-28T01:38:59.959Z,-3.43
2019-03-28T01:40:00.404Z,-3.49
2019-03-28T01:40:59.940Z,-3.51
2019-03-28T01:41:59.940Z,-3.56
2019-03-28T01:42:59.949Z,-3.56
2019-03-28T01:43:59.914Z,-3.62
2019-03-28T01:44:59.949Z,-3.62
2019-03-28T01:45:59.957Z,-3.59
2019-03-28T01:46:59.916Z,-3.63
2019-03-28T01:47:59.923Z,-3.68
2019-03-28T01:48:59.964Z,-3.71
2019-03-28T01:49:59.910Z,-3.74
2019-03-28T01:50:59.947Z,-3.78
2019-03-28T01:51:59.975Z,-3.76
2019-03-28T01:52:59.922Z,-3.79
2019-03-28T01:53:59.939Z,-3.80
2019-03-28T01:54:59.951Z,-3.78
2019-03-28T01:55:59.929Z,-3.77
2019-03-28T01:57:10.453Z,-3.63
2019-03-28T01:57:59.977Z,-3.68
2019-03-28T01:58:59.942Z,-3.72
2019-03-28T01:59:59.917Z,-3.73
2019-03-28T02:01:02.754Z,-3.64
2019-03-28T02:01:59.902Z,-3.61
2019-03-28T02:02:59.980Z,-3.63
2019-03-28T02:03:59.972Z,-3.69
2019-03-28T02:04:59.945Z,-3.64
2019-03-28T02:05:59.960Z,-3.52
2019-03-28T02:06:59.977Z,-3.55
2019-03-28T02:08:02.566Z,-3.53
2019-03-28T02:08:59.957Z,-3.57
2019-03-28T02:10:00.000Z,-3.60
2019-03-28T02:10:59.933Z,-3.63
2019-03-28T02:11:59.962Z,-3.67
2019-03-28T02:12:59.966Z,-3.68
2019-03-28T02:13:59.920Z,-3.72
2019-03-28T02:15:00.013Z,-3.83
2019-03-28T02:15:59.982Z,-3.86
2019-03-28T02:16:59.927Z,-3.89
2019-03-28T02:17:59.942Z,-3.90
2019-03-28T02:19:00.045Z,-3.90
2019-03-28T02:19:59.909Z,-3.88
2019-03-28T02:20:59.978Z,-3.90
2019-03-28T02:21:59.972Z,-3.90
2019-03-28T02:22:59.918Z,-3.80
2019-03-28T02:23:59.945Z,-3.85
2019-03-28T02:24:59.950Z,-3.84
2019-03-28T02:25:59.923Z,-3.85
2019-03-28T02:26:59.992Z,-3.85
2019-03-28T02:28:00.023Z,-3.82
2019-03-28T02:28:59.950Z,-3.81
2019-03-28T02:29:59.958Z,-3.74
2019-03-28T02:30:59.990Z,-3.75
2019-03-28T02:31:59.960Z,-3.73
2019-03-28T02:33:00.214Z,-3.75
2019-03-28T02:34:00.013Z,-3.71
2019-03-28T02:34:59.944Z,-3.68
2019-03-28T02:35:59.941Z,-3.64
2019-03-28T02:37:00.038Z,-3.65
2019-03-28T02:38:00.013Z,-3.64
2019-03-28T02:38:59.991Z,-3.64
2019-03-28T02:40:00.010Z,-3.61
2019-03-28T02:40:59.966Z,-3.57
2019-03-28T02:41:59.978Z,-3.55
2019-03-28T02:43:00.044Z,-3.46
2019-03-28T02:43:59.954Z,-3.44
2019-03-28T02:44:59.973Z,-3.47
2019-03-28T02:45:59.994Z,-3.43
2019-03-28T02:46:59.960Z,-3.45
2019-03-28T02:47:59.968Z,-3.42
2019-03-28T02:48:59.963Z,-3.38
2019-03-28T02:49:59.957Z,-3.33
2019-03-28T02:50:59.977Z,-3.35
2019-03-28T02:52:00.020Z,-3.37
2019-03-28T02:52:59.953Z,-3.42
2019-03-28T02:53:59.973Z,-3.48
2019-03-28T02:54:59.991Z,-3.52
2019-03-28T02:55:59.947Z,-3.57
2019-03-28T02:57:00.033Z,-3.56
2019-03-28T02:58:00.011Z,-3.58
2019-03-28T02:58:59.953Z,-3.57
2019-03-28T02:59:59.974Z,-3.53
2019-03-28T03:00:59.983Z,-3.57
2019-03-28T03:01:59.959Z,-3.60
2019-03-28T03:03:00.015Z,-3.67
2019-03-28T03:04:00.008Z,-3.69
2019-03-28T03:04:59.974Z,-3.67
2019-03-28T03:05:59.992Z,-3.63
2019-03-28T03:07:00.002Z,-3.54
2019-03-28T03:07:59.966Z,-3.55
2019-03-28T03:09:00.005Z,-3.56
2019-03-28T03:10:00.036Z,-3.60
2019-03-28T03:10:59.960Z,-3.70
2019-03-28T03:11:59.995Z,-3.74
2019-03-28T03:13:00.035Z,-3.82
2019-03-28T03:13:59.991Z,-3.82
2019-03-28T03:14:59.999Z,-3.86
2019-03-28T03:16:00.025Z,-3.93
2019-03-28T03:16:59.964Z,-3.89
2019-03-28T03:17:59.998Z,-3.82
2019-03-28T03:19:00.080Z,-3.86
2019-03-28T03:19:59.989Z,-3.80
2019-03-28T03:20:59.977Z,-3.75
2019-03-28T03:22:00.017Z,-3.76
2019-03-28T03:22:59.949Z,-3.60
2019-03-28T03:23:59.994Z,-3.61
2019-03-28T03:25:00.023Z,-3.60
2019-03-28T03:26:00.007Z,-3.60
2019-03-28T03:27:00.041Z,-3.60
2019-03-28T03:28:00.042Z,-3.63
2019-03-28T03:28:59.989Z,-3.53
2019-03-28T03:30:00.023Z,-3.55
2019-03-28T03:30:59.996Z,-3.54
2019-03-28T03:31:59.965Z,-3.50
2019-03-28T03:33:00.032Z,-3.51
2019-03-28T03:34:00.087Z,-3.48
2019-03-28T03:35:00.849Z,-3.50
2019-03-28T03:35:59.986Z,-3.56
2019-03-28T03:37:00.067Z,-3.58
2019-03-28T03:37:59.965Z,-3.61
2019-03-28T03:39:00.041Z,-3.56
2019-03-28T03:40:00.059Z,-3.61
2019-03-28T03:40:59.995Z,-3.62
2019-03-28T03:42:00.020Z,-3.59
2019-03-28T03:43:00.013Z,-3.63
2019-03-28T03:43:59.979Z,-3.67
2019-03-28T03:45:00.051Z,-3.65
2019-03-28T03:46:00.069Z,-3.67
2019-03-28T03:46:59.968Z,-3.64
2019-03-28T03:48:00.020Z,-3.65
2019-03-28T03:49:00.028Z,-3.69
2019-03-28T03:50:00.001Z,-3.70
2019-03-28T03:51:00.024Z,-3.69
2019-03-28T03:52:00.037Z,-3.64
2019-03-28T03:52:59.988Z,-3.61
2019-03-28T03:54:00.022Z,-3.64
2019-03-28T03:55:00.016Z,-3.58
2019-03-28T03:55:59.979Z,-3.62
2019-03-28T03:57:00.057Z,-3.65
2019-03-28T03:58:14.182Z,-3.62
2019-03-28T03:58:59.968Z,-3.59
2019-03-28T04:00:00.033Z,-3.51
2019-03-28T04:01:00.015Z,-3.54
2019-03-28T04:01:59.987Z,-3.54
2019-03-28T04:03:00.046Z,-3.51
2019-03-28T04:04:00.041Z,-3.53
2019-03-28T04:04:59.971Z,-3.52
2019-03-28T04:06:00.040Z,-3.50
2019-03-28T04:07:00.037Z,-3.44
2019-03-28T04:08:00.298Z,-3.44
2019-03-28T04:09:00.026Z,-3.44
2019-03-28T04:10:00.022Z,-3.42
2019-03-28T04:10:59.974Z,-3.45
2019-03-28T04:12:00.008Z,-3.43
2019-03-28T04:13:00.025Z,-3.44
2019-03-28T04:13:59.987Z,-3.41
2019-03-28T04:15:00.018Z,-3.37
2019-03-28T04:16:00.063Z,-3.32
2019-03-28T04:16:59.968Z,-3.28
2019-03-28T04:18:00.020Z,-3.26
2019-03-28T04:19:00.128Z,-3.21
2019-03-28T04:19:59.997Z,-3.16
2019-03-28T04:21:00.044Z,-3.12
2019-03-28T04:22:00.059Z,-3.13
2019-03-28T04:23:00.005Z,-3.11
2019-03-28T04:24:00.031Z,-3.15
2019-03-28T04:25:00.060Z,-3.17
2019-03-28T04:26:00.003Z,-3.14
2019-03-28T04:27:00.072Z,-3.13
2019-03-28T04:28:00.080Z,-3.10
2019-03-28T04:29:00.003Z,-3.06
2019-03-28T04:30:00.025Z,-3.00
2019-03-28T04:31:00.106Z,-2.98
2019-03-28T04:32:00.007Z,-2.97
2019-03-28T04:33:00.057Z,-2.98
2019-03-28T04:34:06.966Z,-3.00
2019-03-28T04:35:00.046Z,-3.00
2019-03-28T04:36:00.027Z,-3.01
2019-03-28T04:37:00.054Z,-3.02
2019-03-28T04:38:00.011Z,-3.03
2019-03-28T04:39:00.049Z,-3.06
2019-03-28T04:40:00.069Z,-3.06
2019-03-28T04:41:00.384Z,-3.03
2019-03-28T04:42:00.045Z,-3.06
2019-03-28T04:43:00.072Z,-3.08
2019-03-28T04:44:00.006Z,-3.08
2019-03-28T04:45:00.273Z,-3.07
2019-03-28T04:46:00.141Z,-3.12
2019-03-28T04:47:00.035Z,-3.12
2019-03-28T04:48:00.051Z,-3.11
2019-03-28T04:49:00.073Z,-3.10
2019-03-28T04:50:00.020Z,-3.09
2019-03-28T04:51:00.070Z,-3.07
2019-03-28T04:52:00.067Z,-3.05
2019-03-28T04:53:00.037Z,-3.05
2019-03-28T04:54:00.056Z,-2.97
2019-03-28T04:55:00.070Z,-2.94
2019-03-28T04:56:00.013Z,-2.93
2019-03-28T04:57:00.036Z,-2.91
2019-03-28T04:58:00.129Z,-2.89
2019-03-28T04:59:00.023Z,-2.91
2019-03-28T05:00:00.052Z,-2.91
2019-03-28T05:01:00.049Z,-2.89
2019-03-28T05:02:03.428Z,-2.89
2019-03-28T05:03:00.054Z,-2.88
2019-03-28T05:04:00.119Z,-2.86
2019-03-28T05:05:00.012Z,-2.84
2019-03-28T05:06:00.070Z,-2.87
2019-03-28T05:07:00.070Z,-2.89
2019-03-28T05:08:00.025Z,-2.89
2019-03-28T05:09:00.048Z,-2.88
2019-03-28T05:10:00.078Z,-2.90
2019-03-28T05:11:00.026Z,-2.89
2019-03-28T05:12:00.066Z,-2.93
2019-03-28T05:13:00.059Z,-2.92
2019-03-28T05:14:00.022Z,-2.91
2019-03-28T05:15:00.061Z,-2.92
2019-03-28T05:16:00.070Z,-2.91
2019-03-28T05:17:00.061Z,-2.89
2019-03-28T05:18:00.054Z,-2.88
2019-03-28T05:19:00.147Z,-2.87
2019-03-28T05:20:00.040Z,-2.86
2019-03-28T05:21:00.075Z,-2.88
2019-03-28T05:22:00.078Z,-2.85
2019-03-28T05:23:00.075Z,-2.85
2019-03-28T05:24:00.125Z,-2.84
2019-03-28T05:25:00.068Z,-2.79
2019-03-28T05:26:00.011Z,-2.73
2019-03-28T05:27:00.071Z,-2.70
2019-03-28T05:28:00.095Z,-2.64
2019-03-28T05:29:00.023Z,-2.57
2019-03-28T05:30:00.118Z,-2.54
2019-03-28T05:31:00.095Z,-2.56
2019-03-28T05:32:00.473Z,-2.53
2019-03-28T05:33:00.087Z,-2.52
2019-03-28T05:34:00.077Z,-2.48
2019-03-28T05:35:00.271Z,-2.45
2019-03-28T05:36:00.055Z,-2.42
2019-03-28T05:37:00.053Z,-2.38
2019-03-28T05:38:00.052Z,-2.34
2019-03-28T05:39:00.098Z,-2.29
2019-03-28T05:40:00.116Z,-2.21
2019-03-28T05:41:00.049Z,-2.19
2019-03-28T05:42:00.065Z,-2.15
2019-03-28T05:43:00.066Z,-2.07
2019-03-28T05:44:00.043Z,-2.04
2019-03-28T05:45:00.135Z,-1.94
2019-03-28T05:46:00.105Z,-1.86
2019-03-28T05:47:00.093Z,-1.82
2019-03-28T05:48:00.391Z,-1.77
2019-03-28T05:49:00.079Z,-1.75
2019-03-28T05:50:00.039Z,-1.67
2019-03-28T05:51:00.065Z,-1.70
2019-03-28T05:52:00.111Z,-1.63
2019-03-28T05:53:00.056Z,-1.59
2019-03-28T05:54:00.118Z,-1.53
2019-03-28T05:55:00.120Z,-1.45
2019-03-28T05:56:00.023Z,-1.46
2019-03-28T05:57:00.113Z,-1.42
2019-03-28T05:58:00.126Z,-1.40
2019-03-28T05:59:10.221Z,-1.36
2019-03-28T06:00:00.136Z,-1.30
2019-03-28T06:01:00.122Z,-1.36
2019-03-28T06:02:00.053Z,-1.32
2019-03-28T06:03:00.096Z,-1.28
2019-03-28T06:04:00.129Z,-1.26
2019-03-28T06:05:00.607Z,-1.34
2019-03-28T06:06:00.079Z,-1.28
2019-03-28T06:07:00.104Z,-1.20
2019-03-28T06:08:00.043Z,-1.13
2019-03-28T06:09:00.093Z,-1.01
2019-03-28T06:10:00.185Z,-1.02
2019-03-28T06:11:00.045Z,-1.05
2019-03-28T06:12:00.090Z,-0.99
2019-03-28T06:13:00.110Z,-0.92
2019-03-28T06:14:00.087Z,-0.89
2019-03-28T06:15:00.122Z,-0.83
2019-03-28T06:16:00.110Z,-0.78
2019-03-28T06:17:00.061Z,-0.72
2019-03-28T06:18:00.080Z,-0.66
2019-03-28T06:19:00.105Z,-0.57
2019-03-28T06:20:00.131Z,-0.50
2019-03-28T06:21:00.112Z,-0.41
2019-03-28T06:22:00.116Z,-0.36
2019-03-28T06:23:00.072Z,-0.28
2019-03-28T06:24:00.070Z,-0.25
2019-03-28T06:25:00.098Z,-0.22
2019-03-28T06:26:00.065Z,-0.13
2019-03-28T06:27:00.108Z,-0.11
2019-03-28T06:28:00.122Z,-0.07
2019-03-28T06:29:00.102Z,0.00
2019-03-28T06:30:02.091Z,0.04
2019-03-28T06:31:00.104Z,0.10
2019-03-28T06:32:00.085Z,0.12
2019-03-28T06:33:00.196Z,0.15
2019-03-28T06:34:00.544Z,0.15
2019-03-28T06:35:00.087Z,0.12
2019-03-28T06:36:02.231Z,0.18
2019-03-28T06:37:00.122Z,0.19
2019-03-28T06:38:00.073Z,0.21
2019-03-28T06:39:00.111Z,0.31
2019-03-28T06:40:00.470Z,0.33
2019-03-28T06:41:00.071Z,0.36
2019-03-28T06:42:00.108Z,0.49
2019-03-28T06:43:00.109Z,0.56
2019-03-28T06:44:00.082Z,0.63
2019-03-28T06:45:03.289Z,0.72
2019-03-28T06:46:00.130Z,0.71
2019-03-28T06:47:00.093Z,0.84
2019-03-28T06:48:00.104Z,0.93
2019-03-28T06:49:00.137Z,1.03
2019-03-28T06:50:00.190Z,1.06
2019-03-28T06:51:00.139Z,1.09
2019-03-28T06:52:00.207Z,1.17
2019-03-28T06:53:00.092Z,1.33
2019-03-28T06:54:00.107Z,1.47
2019-03-28T06:55:00.177Z,1.56
2019-03-28T06:56:00.089Z,1.58
2019-03-28T06:57:00.113Z,1.41
2019-03-28T06:58:00.193Z,1.64
2019-03-28T06:59:00.091Z,1.74
2019-03-28T07:00:00.195Z,1.87
2019-03-28T07:01:00.116Z,2.02
2019-03-28T07:02:00.105Z,2.19
2019-03-28T07:03:00.123Z,2.28
2019-03-28T07:04:00.140Z,2.34
2019-03-28T07:05:00.089Z,2.34
2019-03-28T07:06:00.106Z,2.40
2019-03-28T07:07:00.143Z,2.48
2019-03-28T07:08:00.092Z,2.56
2019-03-28T07:09:00.155Z,2.67
2019-03-28T07:10:02.429Z,2.78
2019-03-28T07:11:00.096Z,2.80
2019-03-28T07:12:00.083Z,2.83
2019-03-28T07:13:00.188Z,2.88
2019-03-28T07:14:00.112Z,2.93
2019-03-28T07:15:00.284Z,3.03
2019-03-28T07:16:00.142Z,3.10
2019-03-28T07:17:00.107Z,3.08
2019-03-28T07:18:00.142Z,3.09
2019-03-28T07:19:00.132Z,3.21
2019-03-28T07:20:00.128Z,3.37
2019-03-28T07:21:00.135Z,3.51
2019-03-28T07:22:00.156Z,3.67
2019-03-28T07:23:00.101Z,3.87
2019-03-28T07:24:00.103Z,3.99
2019-03-28T07:25:00.133Z,3.99
2019-03-28T07:26:00.100Z,4.18
2019-03-28T07:27:00.160Z,4.37
2019-03-28T07:28:00.177Z,4.42
2019-03-28T07:29:00.114Z,4.53
2019-03-28T07:30:00.327Z,4.37
2019-03-28T07:31:00.160Z,4.44
2019-03-28T07:32:00.123Z,4.64
2019-03-28T07:33:00.191Z,4.74
2019-03-28T07:34:00.173Z,4.88
2019-03-28T07:35:00.381Z,4.62
2019-03-28T07:36:00.142Z,4.77
2019-03-28T07:37:00.163Z,4.93
2019-03-28T07:38:00.164Z,4.68
2019-03-28T07:39:00.206Z,4.87
2019-03-28T07:40:00.209Z,5.09
2019-03-28T07:41:00.171Z,5.34
2019-03-28T07:42:00.209Z,5.28
2019-03-28T07:43:00.243Z,4.87
2019-03-28T07:44:00.232Z,5.30
2019-03-28T07:45:00.319Z,5.61
2019-03-28T07:46:00.293Z,5.32
2019-03-28T07:47:00.246Z,5.39
2019-03-28T07:48:00.309Z,5.29
2019-03-28T07:49:00.301Z,5.62
2019-03-28T07:50:00.443Z,5.95
2019-03-28T07:51:00.304Z,6.09
2019-03-28T07:52:00.383Z,5.63
2019-03-28T07:53:00.333Z,5.14
2019-03-28T07:54:00.354Z,5.52
2019-03-28T07:55:00.395Z,5.91
2019-03-28T07:56:00.366Z,6.05
2019-03-28T07:57:00.367Z,6.19
2019-03-28T07:58:00.435Z,5.94
2019-03-28T07:59:01.383Z,6.19
2019-03-28T08:00:04.473Z,6.19
2019-03-28T08:01:00.450Z,6.43
2019-03-28T08:02:00.392Z,6.39
2019-03-28T08:03:00.441Z,6.69
2019-03-28T08:04:00.458Z,6.73
2019-03-28T08:05:01.776Z,6.92
2019-03-28T08:06:00.396Z,7.03
2019-03-28T08:07:00.421Z,7.11
2019-03-28T08:08:00.399Z,7.25
2019-03-28T08:09:00.461Z,7.44
2019-03-28T08:10:00.431Z,7.65
2019-03-28T08:11:00.420Z,7.88
2019-03-28T08:12:00.434Z,8.05
2019-03-28T08:13:00.436Z,8.28
2019-03-28T08:14:00.427Z,8.52
2019-03-28T08:15:00.425Z,8.61
2019-03-28T08:16:00.457Z,8.69
2019-03-28T08:17:00.405Z,8.84
2019-03-28T08:18:00.420Z,8.81
2019-03-28T08:19:00.528Z,8.80
2019-03-28T08:20:00.441Z,8.86
2019-03-28T08:21:00.434Z,8.88
2019-03-28T08:22:00.442Z,9.00
2019-03-28T08:23:00.424Z,9.15
2019-03-28T08:24:00.438Z,9.26
2019-03-28T08:25:00.510Z,9.42
2019-03-28T08:26:00.409Z,9.33
2019-03-28T08:27:00.410Z,9.21
2019-03-28T08:28:00.501Z,9.22
2019-03-28T08:29:00.414Z,9.22
2019-03-28T08:30:00.516Z,9.29
2019-03-28T08:31:00.471Z,9.35
2019-03-28T08:32:00.410Z,9.36
2019-03-28T08:33:00.531Z,9.13
2019-03-28T08:34:01.976Z,9.24
2019-03-28T08:35:00.453Z,9.33
2019-03-28T08:36:00.452Z,9.26
2019-03-28T08:37:00.457Z,9.12
2019-03-28T08:38:00.409Z,8.95
2019-03-28T08:39:00.747Z,8.99
2019-03-28T08:40:00.451Z,8.92
2019-03-28T08:41:00.459Z,8.80
2019-03-28T08:42:00.449Z,8.90
2019-03-28T08:43:00.460Z,8.96
2019-03-28T08:44:00.434Z,9.01
2019-03-28T08:45:00.545Z,8.92
2019-03-28T08:46:00.545Z,8.99
2019-03-28T08:47:00.447Z,9.02
2019-03-28T08:48:00.419Z,8.98
2019-03-28T08:49:00.468Z,8.90
2019-03-28T08:50:00.457Z,8.79
2019-03-28T08:51:00.454Z,8.80
2019-03-28T08:52:00.478Z,8.76
2019-03-28T08:53:00.474Z,8.81
2019-03-28T08:54:00.464Z,8.80
2019-03-28T08:55:00.487Z,8.80
2019-03-28T08:56:00.453Z,8.85
2019-03-28T08:57:00.437Z,8.87
2019-03-28T08:58:00.497Z,8.86
2019-03-28T08:59:00.483Z,8.90
2019-03-28T09:03:00.537Z,9.20
2019-03-28T09:04:00.524Z,9.21
2019-03-28T09:05:00.520Z,9.15
2019-03-28T09:06:00.508Z,9.27
2019-03-28T09:07:00.522Z,9.39
2019-03-28T09:08:00.476Z,9.47
2019-03-28T09:09:00.535Z,9.52
2019-03-28T09:10:00.566Z,9.51
2019-03-28T09:11:00.487Z,9.19
2019-03-28T09:12:00.509Z,9.38
2019-03-28T09:14:00.521Z,9.53
2019-03-28T09:15:00.574Z,9.66
2019-03-28T09:16:00.548Z,9.63
2019-03-28T09:17:09.321Z,9.69
2019-03-28T09:18:00.567Z,9.73
2019-03-28T09:20:05.524Z,9.54
2019-03-28T09:21:00.534Z,9.39
2019-03-28T09:22:00.505Z,9.33
2019-03-28T09:23:00.558Z,9.33
2019-03-28T09:24:00.547Z,9.39
2019-03-28T09:25:00.587Z,9.45
2019-03-28T09:26:00.535Z,9.25
2019-03-28T09:27:00.532Z,9.43
2019-03-28T09:28:00.493Z,9.57
2019-03-28T09:29:00.515Z,9.67
2019-03-28T09:30:00.561Z,9.81
2019-03-28T09:31:00.561Z,9.84
2019-03-28T09:32:00.531Z,9.79
2019-03-28T09:33:00.529Z,9.51
2019-03-28T09:34:00.502Z,9.48
2019-03-28T09:35:00.531Z,9.68
2019-03-28T09:36:00.550Z,9.82
2019-03-28T09:37:00.535Z,9.98
2019-03-28T09:38:00.533Z,10.23
2019-03-28T09:39:00.541Z,10.46
2019-03-28T09:40:00.497Z,10.54
2019-03-28T09:41:00.517Z,10.65
2019-03-28T09:42:00.554Z,10.68
2019-03-28T09:43:00.510Z,10.81
2019-03-28T09:44:00.526Z,10.76
2019-03-28T09:45:00.560Z,10.69
2019-03-28T09:46:01.399Z,10.54
2019-03-28T09:47:00.559Z,10.57
2019-03-28T09:48:00.561Z,10.61
2019-03-28T09:49:00.499Z,10.47
2019-03-28T09:50:00.559Z,10.16
2019-03-28T09:51:00.657Z,9.85
2019-03-28T09:52:00.525Z,10.31
2019-03-28T09:53:00.804Z,10.56
2019-03-28T09:54:00.533Z,10.61
2019-03-28T09:55:00.524Z,10.61
2019-03-28T09:56:00.559Z,10.87
2019-03-28T09:57:00.560Z,11.19
2019-03-28T09:58:00.527Z,11.53
2019-03-28T09:59:00.609Z,11.46
2019-03-28T10:00:00.568Z,11.46
2019-03-28T10:01:03.185Z,11.20
2019-03-28T10:02:01.350Z,11.45
2019-03-28T10:03:00.560Z,11.31
2019-03-28T10:04:00.560Z,11.34
2019-03-28T10:05:00.588Z,11.40
2019-03-28T10:06:00.526Z,11.65
2019-03-28T10:07:00.531Z,11.61
2019-03-28T10:08:00.547Z,11.66
2019-03-28T10:09:00.624Z,11.68
2019-03-28T10:10:00.784Z,11.62
2019-03-28T10:11:00.561Z,11.31
2019-03-28T10:12:00.588Z,11.74
2019-03-28T10:13:00.540Z,11.12
2019-03-28T10:14:00.546Z,11.36
2019-03-28T10:15:00.592Z,11.84
2019-03-28T10:16:00.543Z,12.21
2019-03-28T10:17:01.408Z,12.51
2019-03-28T10:18:00.571Z,12.53
2019-03-28T10:19:00.516Z,12.56
2019-03-28T10:20:00.559Z,12.91
2019-03-28T10:21:00.602Z,12.92
2019-03-28T10:22:00.553Z,13.07
2019-03-28T10:23:00.595Z,12.58
2019-03-28T10:24:00.622Z,12.42
2019-03-28T10:25:00.574Z,12.68
2019-03-28T10:26:00.609Z,12.90
2019-03-28T10:27:00.608Z,13.12
2019-03-28T10:28:00.567Z,13.52
2019-03-28T10:29:00.572Z,14.03
2019-03-28T10:30:00.570Z,13.44
2019-03-28T10:31:00.546Z,12.70
2019-03-28T10:32:00.566Z,12.58
2019-03-28T10:33:00.622Z,12.89
2019-03-28T10:34:00.534Z,13.25
2019-03-28T10:35:00.606Z,13.07
2019-03-28T10:36:00.586Z,13.78
2019-03-28T10:37:00.565Z,14.27
2019-03-28T10:38:00.580Z,14.85
2019-03-28T10:39:00.617Z,14.31
2019-03-28T10:40:00.548Z,14.03
2019-03-28T10:41:00.562Z,13.76
2019-03-28T10:42:00.599Z,13.90
2019-03-28T10:43:00.563Z,14.10
2019-03-28T10:44:00.590Z,13.37
2019-03-28T10:45:00.612Z,14.28
2019-03-28T10:46:00.562Z,13.84
2019-03-28T10:47:00.610Z,13.76
2019-03-28T10:48:00.589Z,13.44
2019-03-28T10:49:00.564Z,13.76
2019-03-28T10:50:03.651Z,14.15
2019-03-28T10:51:00.610Z,13.20
2019-03-28T10:52:03.706Z,13.62
2019-03-28T10:53:00.580Z,14.38
2019-03-28T10:54:00.600Z,13.81
2019-03-28T10:55:00.580Z,15.02
2019-03-28T10:56:00.607Z,16.27
2019-03-28T10:57:13.087Z,15.52
2019-03-28T10:58:00.576Z,15.11
2019-03-28T10:59:00.559Z,14.87
2019-03-28T11:00:00.605Z,15.28
2019-03-28T11:01:00.582Z,14.87
2019-03-28T11:02:00.580Z,13.06
2019-03-28T11:03:00.644Z,13.96
2019-03-28T11:04:00.588Z,14.50
2019-03-28T11:05:00.599Z,14.93
2019-03-28T11:06:00.608Z,14.68
2019-03-28T11:07:00.597Z,14.28
2019-03-28T11:08:00.598Z,14.29
2019-03-28T11:09:00.613Z,14.25
2019-03-28T11:10:00.957Z,14.72
2019-03-28T11:11:00.569Z,15.11
2019-03-28T11:12:00.624Z,15.02
2019-03-28T11:13:00.584Z,14.98
2019-03-28T11:14:00.594Z,14.60
2019-03-28T11:15:00.661Z,14.64
2019-03-28T11:16:00.578Z,13.67
2019-03-28T11:17:00.632Z,13.53
2019-03-28T11:18:00.612Z,14.60
2019-03-28T11:19:00.606Z,14.99
2019-03-28T11:20:00.623Z,14.67
2019-03-28T11:21:00.643Z,14.39
2019-03-28T11:22:00.613Z,14.14
2019-03-28T11:23:02.320Z,14.59
2019-03-28T11:24:00.626Z,15.25
2019-03-28T11:25:00.602Z,15.80
2019-03-28T11:26:00.625Z,16.22
2019-03-28T11:27:00.645Z,16.26
2019-03-28T11:28:00.732Z,15.61
2019-03-28T11:29:01.139Z,15.24
2019-03-28T11:30:00.671Z,14.22
2019-03-28T11:31:00.586Z,14.05
2019-03-28T11:32:00.645Z,14.19
2019-03-28T11:33:00.671Z,13.93
2019-03-28T11:34:00.617Z,13.43
2019-03-28T11:35:00.655Z,13.88
2019-03-28T11:36:00.696Z,14.36
2019-03-28T11:37:00.613Z,15.10
2019-03-28T11:38:00.598Z,15.00
2019-03-28T11:39:02.877Z,14.44
2019-03-28T11:40:00.610Z,13.80
2019-03-28T11:41:00.644Z,13.91
2019-03-28T11:42:00.712Z,14.71
2019-03-28T11:43:00.594Z,14.48
2019-03-28T11:44:00.594Z,15.21
2019-03-28T11:45:00.663Z,15.87
2019-03-28T11:46:00.619Z,16.09
2019-03-28T11:47:00.633Z,15.79
2019-03-28T11:48:00.703Z,15.44
2019-03-28T11:49:00.603Z,15.73
2019-03-28T11:50:00.655Z,15.55
2019-03-28T11:51:00.638Z,15.04
2019-03-28T11:52:00.598Z,14.48
2019-03-28T11:53:00.616Z,14.23
2019-03-28T11:54:00.690Z,13.81
2019-03-28T11:55:00.650Z,13.47
2019-03-28T11:56:00.649Z,13.34
2019-03-28T11:57:00.652Z,12.84
2019-03-28T11:58:00.611Z,12.52
2019-03-28T11:59:00.640Z,12.54
2019-03-28T12:00:00.898Z,12.84
2019-03-28T12:01:00.686Z,13.48
2019-03-28T12:02:18.384Z,13.88
2019-03-28T12:03:00.649Z,14.09
2019-03-28T12:04:00.632Z,13.80
2019-03-28T12:05:00.648Z,13.50
2019-03-28T12:06:00.648Z,13.18
2019-03-28T12:07:00.638Z,13.03
2019-03-28T12:08:00.649Z,12.92
2019-03-28T12:09:00.670Z,12.56
2019-03-28T12:10:00.626Z,12.44
2019-03-28T12:11:00.640Z,12.57
2019-03-28T12:12:00.664Z,12.64
2019-03-28T12:13:00.639Z,12.74
2019-03-28T12:14:00.661Z,13.18
2019-03-28T12:15:00.668Z,13.32
2019-03-28T12:16:00.650Z,13.29
2019-03-28T12:17:00.624Z,12.92
2019-03-28T12:18:00.669Z,13.09
2019-03-28T12:19:00.630Z,13.69
2019-03-28T12:20:00.675Z,13.13
2019-03-28T12:21:00.730Z,12.69
2019-03-28T12:22:00.648Z,12.94
2019-03-28T12:23:00.635Z,13.16
2019-03-28T12:24:00.688Z,13.18
2019-03-28T12:25:00.633Z,13.28
2019-03-28T12:26:00.681Z,13.70
2019-03-28T12:27:00.751Z,14.09
2019-03-28T12:28:00.702Z,14.04
2019-03-28T12:29:00.651Z,14.05
2019-03-28T12:30:00.731Z,14.25
2019-03-28T12:31:00.640Z,14.05
2019-03-28T12:32:13.449Z,14.11
2019-03-28T12:33:00.769Z,14.13
2019-03-28T12:34:00.644Z,13.64
2019-03-28T12:35:00.699Z,13.27
2019-03-28T12:36:00.666Z,13.72
2019-03-28T12:37:00.659Z,13.85
2019-03-28T12:38:00.672Z,13.54
2019-03-28T12:39:00.696Z,13.48
2019-03-28T12:40:00.688Z,13.48
2019-03-28T12:41:00.709Z,13.34
2019-03-28T12:42:00.732Z,13.07
2019-03-28T12:43:00.687Z,12.81
2019-03-28T12:44:00.669Z,12.99
2019-03-28T12:45:00.678Z,13.27
2019-03-28T12:46:00.655Z,13.45
2019-03-28T12:47:00.688Z,13.48
2019-03-28T12:48:00.697Z,13.34
2019-03-28T12:49:00.701Z,13.03
2019-03-28T12:50:00.671Z,13.14
2019-03-28T12:51:00.997Z,13.39
2019-03-28T12:52:00.693Z,13.38
2019-03-28T12:53:00.694Z,13.32
2019-03-28T12:54:00.735Z,13.94
2019-03-28T12:55:00.659Z,14.70
2019-03-28T12:56:00.678Z,15.53
2019-03-28T12:57:00.712Z,16.06
2019-03-28T12:58:00.659Z,15.56
2019-03-28T12:59:00.691Z,14.96
2019-03-28T13:00:00.778Z,14.59
2019-03-28T13:01:00.665Z,14.63
2019-03-28T13:02:00.720Z,14.85
2019-03-28T13:03:00.701Z,15.07
2019-03-28T13:04:00.675Z,14.99